Time;durP1;ratioP1;P1;durP2;ratioP2;P2;SDS_P1;SDS_P2;PMS_P1;PMS_P2;Temp;Humidity;BMP_temperature;BMP_pressure;BME280_temperature;BME280_humidity;BME280_pressure;Samples;Min_cycle;Max_cycle;Signal;HPM_P1;HPM_P2
2022/09/29 04:01:29;;;;;;;6.97;4.57;;;9.10;99.90;;;;;;5499300;23;20589;-73
2022/09/29 04:03:55;;;;;;;8.73;4.87;;;9.10;99.90;;;;;;4928324;29;20482;-73
2022/09/29 04:06:22;;;;;;;6.83;5.63;;;9.20;99.90;;;;;;4929161;29;20797;-73
2022/09/29 04:08:49;;;;;;;8.67;5.90;;;9.20;99.90;;;;;;4929526;29;20454;-73
2022/09/29 04:11:16;;;;;;;8.47;5.87;;;9.20;99.90;;;;;;4921048;29;20479;-73
2022/09/29 04:13:42;;;;;;;10.60;5.90;;;9.10;99.90;;;;;;4910120;29;20503;-73
2022/09/29 04:16:09;;;;;;;10.67;5.67;;;9.10;99.90;;;;;;4908745;29;20459;-73
2022/09/29 04:18:37;;;;;;;13.53;5.43;;;9.20;99.90;;;;;;4910480;29;20463;-73
2022/09/29 04:21:06;;;;;;;5.83;5.23;;;9.10;99.90;;;;;;4910271;29;20494;-73
2022/09/29 04:23:33;;;;;;;10.10;5.07;;;9.10;99.90;;;;;;4910148;29;20455;-73
2022/09/29 04:26:01;;;;;;;8.10;5.03;;;9.10;99.90;;;;;;4908345;29;20940;-73
2022/09/29 04:28:28;;;;;;;5.87;4.93;;;9.10;99.90;;;;;;4910065;29;21247;-73
2022/09/29 04:30:55;;;;;;;6.10;4.80;;;9.10;99.90;;;;;;4909908;29;20483;-73
2022/09/29 04:33:22;;;;;;;5.17;4.67;;;9.10;99.90;;;;;;4910065;29;20513;-69
2022/09/29 04:35:50;;;;;;;9.33;4.83;;;9.10;99.90;;;;;;4908932;29;20482;-68
2022/09/29 04:38:17;;;;;;;5.93;4.90;;;9.00;99.90;;;;;;4909964;29;20463;-68
2022/09/29 04:40:43;;;;;;;8.90;5.43;;;9.00;99.90;;;;;;4909751;29;20483;-68
2022/09/29 04:43:10;;;;;;;10.53;5.57;;;9.00;99.90;;;;;;4909508;29;20959;-68
2022/09/29 04:45:37;;;;;;;6.20;5.10;;;9.00;99.90;;;;;;4908586;29;20478;-68
2022/09/29 04:48:04;;;;;;;6.80;5.17;;;8.90;99.90;;;;;;4909508;29;20983;-67
2022/09/29 04:50:31;;;;;;;6.40;5.03;;;8.90;99.90;;;;;;4909791;29;20464;-68
2022/09/29 04:52:59;;;;;;;9.17;5.00;;;8.90;99.90;;;;;;4909762;29;20495;-67
2022/09/29 04:55:26;;;;;;;5.40;4.50;;;8.90;99.90;;;;;;4908728;29;20998;-76
2022/09/29 04:57:53;;;;;;;7.07;4.60;;;8.90;99.90;;;;;;4909599;29;20459;-76
2022/09/29 05:00:20;;;;;;;7.47;4.80;;;8.80;99.90;;;;;;4909539;29;20878;-76
2022/09/29 05:02:47;;;;;;;9.63;5.37;;;8.80;99.90;;;;;;4909936;29;20462;-75
2022/09/29 05:05:14;;;;;;;6.07;5.47;;;8.80;99.90;;;;;;4909191;29;20451;-75
2022/09/29 05:07:41;;;;;;;7.23;5.03;;;8.80;99.90;;;;;;4909446;29;20462;-76
2022/09/29 05:10:10;;;;;;;5.77;4.23;;;8.90;99.90;;;;;;4908937;29;20471;-76
2022/09/29 05:12:37;;;;;;;7.33;5.60;;;8.80;99.90;;;;;;4909379;29;20470;-76
2022/09/29 05:15:05;;;;;;;9.13;6.07;;;8.80;99.90;;;;;;4908989;29;20518;-76
2022/09/29 05:17:32;;;;;;;8.60;5.87;;;8.80;99.90;;;;;;4909663;29;20841;-76
2022/09/29 05:19:58;;;;;;;7.77;6.07;;;8.80;99.90;;;;;;4909185;29;20471;-76
2022/09/29 05:22:25;;;;;;;5.83;5.03;;;8.80;99.90;;;;;;4909304;29;20487;-75
2022/09/29 05:24:52;;;;;;;6.37;5.67;;;8.80;99.90;;;;;;4908561;29;20967;-75
2022/09/29 05:27:21;;;;;;;6.90;4.97;;;8.80;99.90;;;;;;4907427;29;20675;-75
2022/09/29 05:29:48;;;;;;;6.50;5.00;;;8.70;99.90;;;;;;4909544;29;20539;-76
2022/09/29 05:32:15;;;;;;;6.13;4.90;;;8.70;99.90;;;;;;4909349;29;20568;-75
2022/09/29 05:34:42;;;;;;;7.33;4.93;;;8.70;99.90;;;;;;4908830;29;20495;-75
2022/09/29 05:37:09;;;;;;;10.90;5.50;;;8.70;99.90;;;;;;4908872;29;20851;-75
2022/09/29 05:39:36;;;;;;;6.70;4.90;;;8.60;99.90;;;;;;4908593;29;20482;-75
2022/09/29 05:42:05;;;;;;;5.20;4.60;;;8.60;99.90;;;;;;4909180;29;20483;-75
2022/09/29 05:44:33;;;;;;;9.87;6.17;;;8.60;99.90;;;;;;4908723;29;20596;-75
2022/09/29 05:47:00;;;;;;;7.97;5.70;;;8.50;99.90;;;;;;4909305;29;20463;-75
2022/09/29 05:49:26;;;;;;;6.63;5.93;;;8.60;99.90;;;;;;4908505;29;20478;-75
2022/09/29 05:51:53;;;;;;;7.77;5.20;;;8.60;99.90;;;;;;4907932;29;20490;-75
2022/09/29 05:54:20;;;;;;;5.33;4.70;;;8.60;99.90;;;;;;4907419;29;20499;-76
2022/09/29 05:56:47;;;;;;;9.03;5.43;;;8.50;99.90;;;;;;4908720;29;20464;-75
2022/09/29 05:59:14;;;;;;;8.73;4.90;;;8.50;99.90;;;;;;4908334;29;20829;-76
2022/09/29 06:01:42;;;;;;;6.00;4.33;;;8.50;99.90;;;;;;4908245;29;21066;-75
2022/09/29 06:04:09;;;;;;;7.97;5.40;;;8.50;99.90;;;;;;4907890;29;20459;-75
2022/09/29 06:06:38;;;;;;;5.33;4.80;;;8.60;99.90;;;;;;4909155;29;20455;-75
2022/09/29 06:09:06;;;;;;;9.43;4.73;;;8.60;99.90;;;;;;4910761;29;20481;-76
2022/09/29 06:11:33;;;;;;;8.00;5.23;;;8.60;99.90;;;;;;4911579;29;20475;-75
2022/09/29 06:14:02;;;;;;;7.60;5.13;;;8.60;99.90;;;;;;4911614;29;20505;-79
2022/09/29 06:16:31;;;;;;;10.10;5.60;;;8.50;99.90;;;;;;4912313;29;20460;-77
2022/09/29 06:19:00;;;;;;;6.87;6.00;;;8.40;99.90;;;;;;4912387;29;20473;-75
2022/09/29 06:21:28;;;;;;;7.90;6.03;;;8.30;99.90;;;;;;4911057;29;20483;-75
2022/09/29 06:23:56;;;;;;;11.60;8.00;;;8.30;99.90;;;;;;4910508;29;20948;-75
2022/09/29 06:26:24;;;;;;;10.50;6.90;;;8.40;99.90;;;;;;4910613;29;20463;-74
2022/09/29 06:28:52;;;;;;;8.47;6.23;;;8.40;99.90;;;;;;4913993;29;20449;-75
2022/09/29 06:31:20;;;;;;;10.53;7.03;;;8.40;99.90;;;;;;4913331;29;20496;-77
2022/09/29 06:33:47;;;;;;;11.83;6.87;;;8.50;99.90;;;;;;4913162;29;21066;-78
2022/09/29 06:39:03;;;;;;;8.90;5.00;;;8.50;99.90;;;;;;4913899;29;20441;-75
2022/09/29 06:41:30;;;;;;;6.23;4.93;;;8.40;99.90;;;;;;4913815;29;21181;-75
2022/09/29 06:43:57;;;;;;;13.00;5.30;;;8.40;99.90;;;;;;4913767;29;20455;-79
2022/09/29 06:46:25;;;;;;;8.00;5.00;;;8.40;99.90;;;;;;4913743;29;20463;-79
2022/09/29 06:48:52;;;;;;;6.70;5.20;;;8.50;99.90;;;;;;4913218;29;20467;-74
2022/09/29 06:51:22;;;;;;;5.53;4.20;;;8.40;99.90;;;;;;4912389;29;21030;-75
2022/09/29 06:53:49;;;;;;;7.53;5.50;;;8.40;99.90;;;;;;4913896;29;20516;-75
2022/09/29 06:56:16;;;;;;;7.57;5.23;;;8.50;99.90;;;;;;4912901;29;20466;-76
2022/09/29 06:58:44;;;;;;;7.30;5.53;;;8.50;99.90;;;;;;4912981;29;20510;-78
2022/09/29 07:01:11;;;;;;;9.03;5.90;;;8.50;99.90;;;;;;4913375;29;20499;-75
2022/09/29 07:03:38;;;;;;;8.40;5.73;;;8.60;99.90;;;;;;4913102;29;21015;-75
2022/09/29 07:06:06;;;;;;;12.33;6.30;;;8.60;99.90;;;;;;4912847;29;20467;-76
2022/09/29 07:08:36;;;;;;;8.43;5.50;;;8.70;99.90;;;;;;4913103;29;20463;-75
2022/09/29 07:11:03;;;;;;;9.90;5.67;;;8.80;99.90;;;;;;4913256;29;20587;-75
2022/09/29 07:13:30;;;;;;;6.03;5.10;;;8.80;99.90;;;;;;4913478;29;20467;-77
2022/09/29 07:16:02;;;;;;;11.83;6.23;;;8.90;99.90;;;;;;4912332;29;20468;-75
2022/09/29 07:18:30;;;;;;;8.73;7.07;;;8.90;99.90;;;;;;4913878;29;20454;-75
2022/09/29 07:20:56;;;;;;;7.77;5.80;;;8.90;99.90;;;;;;4912991;29;20572;-75
2022/09/29 07:23:24;;;;;;;12.13;6.10;;;9.00;99.90;;;;;;4912555;29;20468;-75
2022/09/29 07:25:52;;;;;;;7.93;5.53;;;9.00;99.90;;;;;;4912261;29;20467;-78
2022/09/29 07:28:19;;;;;;;10.80;6.40;;;9.10;99.90;;;;;;4913374;29;20850;-77
2022/09/29 07:30:46;;;;;;;5.17;4.57;;;9.10;99.90;;;;;;4913486;29;20490;-75
2022/09/29 07:33:12;;;;;;;6.90;4.90;;;9.00;99.90;;;;;;4912737;29;20994;-75
2022/09/29 07:35:39;;;;;;;5.80;4.40;;;9.10;99.90;;;;;;4912027;29;20506;-75
2022/09/29 07:38:06;;;;;;;7.50;4.33;;;9.00;99.90;;;;;;4911901;29;20470;-75
2022/09/29 07:40:33;;;;;;;5.70;5.10;;;9.10;99.90;;;;;;4913162;29;21213;-75
2022/09/29 07:43:01;;;;;;;9.00;5.10;;;9.10;99.90;;;;;;4913126;29;20826;-75
2022/09/29 07:45:27;;;;;;;5.67;5.13;;;9.20;99.90;;;;;;4912308;29;20480;-76
2022/09/29 07:47:56;;;;;;;6.63;5.30;;;9.20;99.90;;;;;;4912836;29;20467;-74
2022/09/29 07:50:23;;;;;;;6.63;4.40;;;9.20;99.90;;;;;;4912979;29;20463;-77
2022/09/29 07:52:50;;;;;;;9.27;4.87;;;9.30;99.90;;;;;;4912537;29;20463;-75
2022/09/29 07:55:17;;;;;;;8.57;5.07;;;9.30;99.90;;;;;;4911921;29;20510;-75
2022/09/29 07:57:47;;;;;;;8.00;5.13;;;9.30;99.90;;;;;;4913074;29;20471;-76
2022/09/29 08:00:16;;;;;;;6.00;4.77;;;9.40;99.90;;;;;;4912384;29;20459;-76
2022/09/29 08:02:43;;;;;;;5.33;4.50;;;9.50;99.90;;;;;;4912811;29;20463;-75
2022/09/29 08:05:10;;;;;;;8.07;4.87;;;9.50;99.90;;;;;;4911932;29;20463;-76
2022/09/29 08:07:36;;;;;;;5.57;4.90;;;9.50;99.90;;;;;;4912372;29;20843;-75
2022/09/29 08:10:04;;;;;;;6.37;4.97;;;9.50;99.90;;;;;;4912407;29;20455;-77
2022/09/29 08:12:31;;;;;;;6.93;4.53;;;9.60;99.90;;;;;;4912285;29;21026;-76
2022/09/29 08:14:58;;;;;;;6.10;4.20;;;9.60;99.90;;;;;;4911494;29;20517;-76
2022/09/29 08:17:26;;;;;;;5.20;4.50;;;9.60;99.90;;;;;;4912108;29;20955;-76
2022/09/29 08:19:53;;;;;;;5.73;4.20;;;9.70;99.90;;;;;;4911412;29;20967;-76
2022/09/29 08:22:20;;;;;;;8.30;4.37;;;9.70;99.90;;;;;;4911925;29;20487;-76
2022/09/29 08:24:46;;;;;;;6.10;4.07;;;9.80;99.90;;;;;;4911607;29;20462;-74
2022/09/29 08:27:13;;;;;;;4.63;3.87;;;9.90;99.90;;;;;;4911815;29;20968;-76
2022/09/29 08:29:41;;;;;;;6.30;3.97;;;9.90;99.90;;;;;;4912101;29;20960;-74
2022/09/29 08:32:07;;;;;;;6.30;4.10;;;9.90;99.90;;;;;;4911679;29;20494;-74
2022/09/29 08:34:35;;;;;;;7.77;4.33;;;10.00;99.90;;;;;;4911143;29;20495;-75
2022/09/29 08:37:02;;;;;;;5.07;4.10;;;10.00;99.90;;;;;;4912119;29;20842;-76
2022/09/29 08:39:30;;;;;;;7.00;4.17;;;10.10;99.90;;;;;;4912187;29;20459;-75
2022/09/29 08:42:05;;;;;;;5.07;3.57;;;10.10;99.90;;;;;;4912020;29;21223;-77
2022/09/29 08:44:37;;;;;;;6.17;4.03;;;10.20;99.90;;;;;;4911542;29;20448;-79
2022/09/29 08:47:13;;;;;;;4.33;3.30;;;10.20;99.90;;;;;;4912364;29;20451;-74
2022/09/29 08:49:45;;;;;;;6.13;3.50;;;10.30;99.90;;;;;;4911921;29;20879;-75
2022/09/29 08:52:17;;;;;;;4.50;3.57;;;10.30;99.90;;;;;;4911592;29;20492;-74
2022/09/29 08:54:46;;;;;;;5.50;4.10;;;10.40;99.90;;;;;;4910465;29;20495;-75
2022/09/29 08:57:17;;;;;;;6.60;3.53;;;10.40;99.90;;;;;;4911334;29;20490;-75
2022/09/29 08:59:52;;;;;;;3.47;2.93;;;10.50;99.90;;;;;;4911579;29;20979;-75
2022/09/29 09:02:49;;;;;;;7.80;3.60;;;10.60;99.90;;;;;;4911363;29;20491;-75
2022/09/29 09:05:38;;;;;;;4.33;3.33;;;10.70;99.90;;;;;;4911267;29;20451;-74
2022/09/29 09:08:15;;;;;;;4.07;3.63;;;10.80;99.90;;;;;;4911360;29;20863;-75
2022/09/29 09:10:46;;;;;;;3.83;3.43;;;10.80;99.90;;;;;;4911709;29;21038;-74
2022/09/29 09:13:48;;;;;;;2.93;2.50;;;11.00;99.90;;;;;;4911624;29;20534;-78
2022/09/29 09:16:24;;;;;;;3.00;2.67;;;11.10;99.90;;;;;;4910753;29;21085;-76
2022/09/29 09:19:38;;;;;;;3.77;3.37;;;11.20;99.90;;;;;;4911248;29;20469;-76
2022/09/29 09:22:21;;;;;;;4.70;3.27;;;11.30;99.90;;;;;;4889056;29;20867;-75
2022/09/29 09:24:51;;;;;;;4.87;2.63;;;11.40;99.90;;;;;;4910735;29;21237;-76
2022/09/29 09:27:23;;;;;;;4.90;3.53;;;11.50;99.90;;;;;;4911662;29;20459;-75
2022/09/29 09:30:01;;;;;;;4.80;3.27;;;11.60;99.90;;;;;;4911984;29;20470;-75
2022/09/29 09:32:31;;;;;;;4.47;3.33;;;11.70;99.90;;;;;;4912043;29;20485;-75
2022/09/29 09:35:01;;;;;;;6.27;3.30;;;11.80;99.90;;;;;;4911065;29;20491;-75
2022/09/29 09:37:37;;;;;;;3.33;2.70;;;12.00;99.90;;;;;;4911709;29;20467;-75
2022/09/29 09:40:11;;;;;;;3.67;2.00;;;12.20;99.90;;;;;;4911718;29;20447;-75
2022/09/29 09:42:42;;;;;;;3.50;2.40;;;12.40;99.90;;;;;;4911845;29;20491;-75
2022/09/29 09:45:14;;;;;;;5.60;2.63;;;12.70;99.90;;;;;;4910807;29;20459;-78
2022/09/29 09:47:48;;;;;;;5.07;2.50;;;12.70;99.90;;;;;;4911681;29;20476;-75
2022/09/29 09:50:17;;;;;;;3.73;2.20;;;12.70;99.90;;;;;;4911618;29;20929;-77
2022/09/29 09:52:51;;;;;;;2.97;2.40;;;12.60;99.90;;;;;;4911856;29;20475;-77
2022/09/29 09:55:20;;;;;;;2.17;1.97;;;12.70;99.90;;;;;;4910632;29;20975;-76
2022/09/29 09:58:19;;;;;;;4.73;2.37;;;12.90;99.90;;;;;;4911354;29;20490;-79
2022/09/29 10:00:50;;;;;;;9.53;2.57;;;13.00;99.90;;;;;;4900497;29;20506;-75
2022/09/29 10:03:17;;;;;;;4.10;2.90;;;13.10;99.90;;;;;;4914726;29;20459;-76
2022/09/29 10:05:47;;;;;;;5.80;2.80;;;13.10;99.90;;;;;;4913842;29;20482;-79
2022/09/29 10:08:23;;;;;;;4.93;2.53;;;13.10;99.90;;;;;;4912130;29;20460;-78
2022/09/29 10:10:50;;;;;;;4.87;3.03;;;13.10;99.90;;;;;;4914787;29;20477;-76
2022/09/29 10:13:17;;;;;;;8.73;3.67;;;13.20;99.90;;;;;;4914373;29;20804;-76
2022/09/29 10:15:50;;;;;;;4.97;2.87;;;13.00;99.90;;;;;;4913220;29;20503;-75
2022/09/29 10:18:22;;;;;;;8.20;3.37;;;12.90;99.90;;;;;;4914723;29;20451;-75
2022/09/29 10:20:49;;;;;;;8.53;3.13;;;13.00;99.90;;;;;;4914384;29;20494;-75
2022/09/29 10:23:25;;;;;;;3.83;3.10;;;13.10;99.90;;;;;;4914482;29;20473;-75
2022/09/29 10:25:55;;;;;;;5.30;2.67;;;13.30;99.90;;;;;;4913557;29;20447;-76
2022/09/29 10:28:23;;;;;;;7.53;2.90;;;13.60;99.90;;;;;;4913592;29;20987;-76
2022/09/29 10:30:50;;;;;;;4.40;3.30;;;13.80;99.90;;;;;;4915966;29;20482;-80
2022/09/29 10:33:19;;;;;;;6.90;2.87;;;13.80;99.90;;;;;;4932831;29;20943;-75
2022/09/29 10:35:48;;;;;;;5.20;2.80;;;13.80;99.90;;;;;;4931994;29;20506;-76
2022/09/29 10:38:25;;;;;;;4.00;2.60;;;13.80;99.90;;;;;;4932960;29;20494;-76
2022/09/29 10:40:59;;;;;;;3.23;2.83;;;13.70;99.90;;;;;;4932899;29;20478;-76
2022/09/29 10:43:32;;;;;;;6.00;2.73;;;13.60;99.90;;;;;;4932935;29;20446;-76
2022/09/29 10:45:59;;;;;;;4.10;2.80;;;13.60;99.90;;;;;;4931917;29;20438;-76
2022/09/29 10:48:26;;;;;;;4.40;2.60;;;13.60;99.90;;;;;;4916457;29;20463;-77
2022/09/29 10:50:55;;;;;;;4.20;2.90;;;13.70;99.90;;;;;;4913366;29;20479;-75
2022/09/29 10:53:34;;;;;;;3.30;2.70;;;13.70;99.90;;;;;;4923648;29;20485;-73
2022/09/29 10:56:07;;;;;;;7.60;3.03;;;13.80;99.90;;;;;;4926053;29;20485;-72
2022/09/29 10:58:36;;;;;;;4.30;2.43;;;13.80;99.90;;;;;;4911761;29;20452;-73
2022/09/29 11:01:07;;;;;;;7.97;3.50;;;13.90;99.90;;;;;;4913430;29;20904;-72
2022/09/29 11:03:37;;;;;;;3.87;2.70;;;14.10;99.90;;;;;;4925140;29;20500;-72
2022/09/29 11:06:06;;;;;;;4.67;2.87;;;14.20;99.90;;;;;;4930174;29;20446;-71
2022/09/29 11:08:56;;;;;;;6.00;2.83;;;14.10;99.90;;;;;;4924137;29;20456;-76
2022/09/29 11:11:26;;;;;;;4.33;2.67;;;14.20;99.90;;;;;;4913335;29;20546;-76
2022/09/29 11:13:53;;;;;;;4.27;2.00;;;14.20;99.90;;;;;;4913506;29;20558;-77
2022/09/29 11:16:27;;;;;;;5.57;3.07;;;14.30;99.90;;;;;;4912852;29;20497;-81
2022/09/29 11:18:57;;;;;;;5.77;2.80;;;14.40;99.90;;;;;;4913886;29;20446;-76
2022/09/29 11:22:00;;;;;;;3.87;2.47;;;14.50;99.90;;;;;;4913127;29;20483;-75
2022/09/29 11:25:05;;;;;;;4.77;2.80;;;14.50;99.90;;;;;;4912837;29;20453;-76
2022/09/29 11:27:43;;;;;;;4.83;2.40;;;14.70;99.90;;;;;;4907700;29;20490;-76
2022/09/29 11:30:14;;;;;;;3.60;2.77;;;14.80;99.90;;;;;;4913269;29;20443;-75
2022/09/29 11:33:04;;;;;;;4.50;2.63;;;14.90;99.90;;;;;;4913200;29;20510;-76
2022/09/29 11:35:45;;;;;;;3.10;2.40;;;15.10;99.90;;;;;;4911329;29;20506;-76
2022/09/29 11:38:36;;;;;;;3.93;2.23;;;15.20;99.90;;;;;;4912791;29;20455;-76
2022/09/29 11:41:15;;;;;;;6.73;2.47;;;15.20;99.90;;;;;;4907884;29;20497;-75
2022/09/29 11:43:47;;;;;;;3.00;2.00;;;15.20;99.90;;;;;;4912147;29;20467;-76
2022/09/29 11:46:31;;;;;;;6.50;2.83;;;15.30;99.90;;;;;;4912767;29;20474;-79
2022/09/29 11:49:43;;;;;;;6.53;2.00;;;15.40;99.90;;;;;;4916222;29;20459;-75
2022/09/29 11:52:22;;;;;;;3.93;2.30;;;15.50;99.90;;;;;;4883332;29;20507;-78
2022/09/29 11:55:05;;;;;;;2.90;2.00;;;15.60;99.90;;;;;;4916806;29;20460;-75
2022/09/29 11:57:46;;;;;;;3.30;2.00;;;15.50;99.90;;;;;;4931282;29;20553;-76
2022/09/29 12:00:15;;;;;;;9.87;2.00;;;15.80;99.90;;;;;;4931242;29;20455;-77
2022/09/29 12:03:11;;;;;;;3.03;1.87;;;15.80;99.90;;;;;;4929012;29;20478;-77
2022/09/29 12:05:50;;;;;;;4.10;1.73;;;15.90;99.90;;;;;;4892231;29;20455;-76
2022/09/29 12:08:30;;;;;;;4.40;2.10;;;16.00;99.90;;;;;;4893681;29;20886;-77
2022/09/29 12:11:03;;;;;;;4.80;1.50;;;16.10;99.90;;;;;;4892815;29;20941;-77
2022/09/29 12:13:41;;;;;;;3.40;2.00;;;16.20;99.90;;;;;;4892859;29;20558;-74
2022/09/29 12:16:12;;;;;;;3.27;2.00;;;16.30;99.90;;;;;;4892208;29;20911;-75
2022/09/29 12:18:47;;;;;;;4.00;2.00;;;16.30;99.90;;;;;;4892859;29;20441;-74
2022/09/29 12:21:17;;;;;;;4.03;2.13;;;16.10;99.90;;;;;;4892204;29;20488;-76
2022/09/29 12:23:46;;;;;;;3.60;2.27;;;16.10;99.90;;;;;;4891076;29;20893;-76
2022/09/29 12:26:18;;;;;;;3.55;2.00;;;16.20;99.90;;;;;;4891219;29;20461;-77
2022/09/29 12:28:51;;;;;;;3.57;1.70;;;16.40;99.90;;;;;;4893977;29;20212;-78
2022/09/29 12:31:22;;;;;;;2.93;1.70;;;16.60;99.90;;;;;;4893882;29;21431;-74
2022/09/29 12:33:52;;;;;;;4.57;1.70;;;16.60;99.90;;;;;;4892756;29;20468;-76
2022/09/29 12:36:49;;;;;;;6.00;1.87;;;16.60;99.90;;;;;;4890602;29;20503;-76
2022/09/29 12:39:27;;;;;;;4.60;2.00;;;16.60;99.90;;;;;;4910098;29;20463;-76
2022/09/29 12:42:00;;;;;;;3.63;1.90;;;16.70;99.90;;;;;;4910242;29;20491;-74
2022/09/29 12:44:37;;;;;;;4.83;2.00;;;16.90;99.90;;;;;;4910438;29;20459;-75
2022/09/29 12:47:09;;;;;;;3.00;1.87;;;16.90;99.90;;;;;;4910931;29;20539;-76
2022/09/29 12:49:48;;;;;;;2.30;1.60;;;17.00;99.90;;;;;;4910322;29;20451;-76
2022/09/29 12:52:20;;;;;;;4.37;1.90;;;17.10;99.90;;;;;;4910069;29;20493;-76
2022/09/29 12:54:52;;;;;;;3.07;1.77;;;17.20;99.90;;;;;;4909863;29;20463;-78
2022/09/29 12:57:25;;;;;;;3.77;2.13;;;17.20;99.90;;;;;;4909347;29;20525;-77
2022/09/29 12:59:58;;;;;;;5.77;1.83;;;17.10;99.90;;;;;;4909714;29;21019;-76
2022/09/29 13:03:06;;;;;;;8.93;2.40;;;17.10;99.90;;;;;;4909447;29;21328;-76
2022/09/29 13:05:55;;;;;;;4.47;1.97;;;16.90;99.90;;;;;;4908465;29;21046;-76
2022/09/29 13:08:47;;;;;;;6.73;2.00;;;16.80;99.90;;;;;;4909790;29;20462;-76
2022/09/29 13:11:33;;;;;;;3.13;1.67;;;16.80;99.90;;;;;;4909510;29;20487;-76
2022/09/29 13:14:30;;;;;;;2.67;1.83;;;16.70;99.90;;;;;;4909212;29;20526;-77
2022/09/29 13:17:12;;;;;;;4.70;1.70;;;16.70;99.90;;;;;;4909394;29;20851;-76
2022/09/29 13:20:02;;;;;;;3.37;1.87;;;16.70;99.90;;;;;;4909668;29;20831;-76
2022/09/29 13:22:59;;;;;;;4.03;1.90;;;16.80;99.90;;;;;;4909742;29;20490;-73
2022/09/29 13:25:33;;;;;;;3.33;1.30;;;16.80;99.90;;;;;;4888293;29;20928;-74
2022/09/29 13:28:00;;;;;;;4.80;1.50;;;16.90;99.90;;;;;;4890117;29;20459;-76
2022/09/29 13:30:30;;;;;;;2.67;2.00;;;16.90;99.90;;;;;;4900890;29;20455;-74
2022/09/29 13:33:09;;;;;;;2.20;1.80;;;16.90;99.90;;;;;;4909974;29;20457;-75
2022/09/29 13:35:39;;;;;;;4.03;1.90;;;16.90;99.90;;;;;;4908973;29;20455;-73
2022/09/29 13:38:08;;;;;;;3.60;2.13;;;16.80;99.90;;;;;;4913517;29;20459;-74
2022/09/29 13:40:35;;;;;;;2.97;1.97;;;16.70;99.90;;;;;;4913482;29;20487;-74
2022/09/29 13:43:04;;;;;;;4.47;3.40;;;16.70;99.90;;;;;;4913010;29;20478;-74
2022/09/29 13:45:46;;;;;;;5.60;1.97;;;16.70;99.90;;;;;;4910829;29;20537;-75
2022/09/29 13:48:46;;;;;;;3.40;2.07;;;16.70;99.90;;;;;;4913635;29;20546;-70
2022/09/29 13:51:28;;;;;;;2.90;1.50;;;16.80;99.90;;;;;;4913394;29;20574;-76
2022/09/29 13:54:25;;;;;;;2.73;1.60;;;16.70;99.90;;;;;;4913112;29;20444;-76
2022/09/29 13:57:05;;;;;;;3.90;1.70;;;16.70;99.90;;;;;;4912210;29;20482;-69
2022/09/29 13:59:32;;;;;;;4.53;1.73;;;16.50;99.90;;;;;;4913135;29;20453;-69
2022/09/29 14:02:00;;;;;;;4.50;1.50;;;16.40;99.90;;;;;;4913189;29;20487;-72
2022/09/29 14:04:50;;;;;;;2.17;1.53;;;16.30;99.90;;;;;;4913263;29;20459;-76
2022/09/29 14:07:36;;;;;;;2.10;1.33;;;16.30;99.90;;;;;;4914181;29;20911;-71
2022/09/29 14:10:14;;;;;;;2.87;1.30;;;16.30;99.90;;;;;;4914682;29;20506;-76
2022/09/29 14:12:42;;;;;;;2.73;1.23;;;16.30;99.90;;;;;;4915693;29;20451;-77
2022/09/29 14:15:17;;;;;;;3.50;1.30;;;16.30;99.90;;;;;;4913592;29;20523;-77
2022/09/29 14:17:49;;;;;;;1.83;1.57;;;16.40;99.90;;;;;;4914959;29;20498;-76
2022/09/29 14:20:22;;;;;;;2.27;1.57;;;16.40;99.90;;;;;;4914268;29;20470;-70
2022/09/29 14:22:55;;;;;;;4.97;1.70;;;16.40;99.90;;;;;;4913225;29;20466;-68
2022/09/29 14:25:56;;;;;;;2.70;1.40;;;16.30;99.90;;;;;;4912111;29;20466;-70
2022/09/29 14:28:43;;;;;;;8.90;1.70;;;16.20;99.90;;;;;;4912475;29;20837;-70
2022/09/29 14:31:21;;;;;;;3.63;1.43;;;16.00;99.90;;;;;;4907573;29;20502;-70
2022/09/29 14:33:52;;;;;;;7.03;2.20;;;15.90;99.90;;;;;;4912722;29;20465;-76
2022/09/29 14:36:23;;;;;;;2.80;1.47;;;15.90;99.90;;;;;;4912389;29;20491;-76
2022/09/29 14:38:54;;;;;;;2.90;1.47;;;15.80;99.90;;;;;;4911961;29;20463;-75
2022/09/29 14:41:32;;;;;;;3.20;1.50;;;15.80;99.90;;;;;;4912889;29;20487;-76
2022/09/29 14:44:05;;;;;;;4.17;1.60;;;15.80;99.90;;;;;;4911904;29;20455;-74
2022/09/29 14:52:57;;;;;;;4.67;2.03;;;15.80;99.90;;;;;;4913596;29;20984;-76
2022/09/29 14:55:31;;;;;;;6.27;1.80;;;15.80;99.90;;;;;;4911345;29;20451;-74
2022/09/29 14:58:13;;;;;;;3.70;1.60;;;15.70;99.90;;;;;;4913313;29;20533;-75
2022/09/29 15:00:53;;;;;;;7.23;1.90;;;15.70;99.90;;;;;;4912299;29;20949;-73
2022/09/29 15:03:27;;;;;;;4.50;1.80;;;15.60;99.90;;;;;;4911974;29;20478;-73
2022/09/29 15:06:05;;;;;;;4.37;1.97;;;15.60;99.90;;;;;;4911204;29;20447;-75
2022/09/29 15:08:35;;;;;;;3.03;1.60;;;15.50;99.90;;;;;;4911029;29;20455;-73
2022/09/29 15:11:02;;;;;;;3.43;1.60;;;15.60;99.90;;;;;;4910342;29;20495;-74
2022/09/29 15:13:30;;;;;;;4.67;1.87;;;15.60;99.90;;;;;;4910169;29;20996;-75
2022/09/29 15:16:03;;;;;;;6.27;1.90;;;15.60;99.90;;;;;;4910565;29;20467;-74
2022/09/29 15:18:59;;;;;;;4.50;1.67;;;15.60;99.90;;;;;;4911181;29;20467;-75
2022/09/29 15:21:36;;;;;;;5.13;1.70;;;15.60;99.90;;;;;;4911897;29;20518;-75
2022/09/29 15:24:49;;;;;;;4.30;1.60;;;15.60;99.90;;;;;;4911255;29;20477;-75
2022/09/29 15:27:16;;;;;;;5.60;2.10;;;15.50;99.90;;;;;;4852397;29;20462;-74
2022/09/29 15:29:47;;;;;;;12.53;2.40;;;15.50;99.90;;;;;;4896894;29;20483;-75
2022/09/29 15:32:22;;;;;;;7.50;2.10;;;15.50;99.90;;;;;;4911143;29;20487;-75
2022/09/29 15:34:52;;;;;;;2.53;1.70;;;15.50;99.90;;;;;;4910789;29;20447;-74
2022/09/29 15:37:28;;;;;;;3.00;1.60;;;15.50;99.90;;;;;;4910808;29;20547;-74
2022/09/29 15:39:56;;;;;;;4.00;1.87;;;15.60;99.90;;;;;;4911152;29;20574;-74
2022/09/29 15:42:23;;;;;;;3.97;2.00;;;15.60;99.90;;;;;;4910998;29;20490;-74
2022/09/29 15:44:58;;;;;;;3.43;1.77;;;15.60;99.90;;;;;;4910507;29;20459;-74
2022/09/29 15:47:34;;;;;;;4.03;1.60;;;15.60;99.90;;;;;;4911741;29;20445;-72
2022/09/29 15:50:04;;;;;;;4.67;1.83;;;15.50;99.90;;;;;;4912612;29;20833;-73
2022/09/29 15:52:31;;;;;;;4.40;1.77;;;15.50;99.90;;;;;;4914319;29;20484;-73
2022/09/29 15:54:59;;;;;;;2.67;1.70;;;15.50;99.90;;;;;;4913475;29;20459;-73
2022/09/29 15:57:42;;;;;;;2.67;1.77;;;15.50;99.90;;;;;;4914093;29;20483;-73
2022/09/29 16:00:42;;;;;;;3.60;1.87;;;15.40;99.90;;;;;;4913231;29;20463;-73
2022/09/29 16:03:13;;;;;;;2.83;1.80;;;15.40;99.90;;;;;;4914601;29;20447;-73
2022/09/29 16:05:42;;;;;;;2.50;1.70;;;15.40;99.90;;;;;;4913310;29;20439;-73
2022/09/29 16:08:21;;;;;;;1.77;1.50;;;15.40;99.90;;;;;;4913502;29;20459;-73
2022/09/29 16:10:54;;;;;;;3.40;1.70;;;15.30;99.90;;;;;;4913378;29;20514;-73
2022/09/29 16:13:24;;;;;;;3.27;1.83;;;15.30;99.90;;;;;;4913713;29;20459;-75
2022/09/29 16:15:54;;;;;;;4.33;1.90;;;15.30;99.90;;;;;;4913209;29;20444;-75
2022/09/29 16:18:25;;;;;;;2.63;1.60;;;15.30;99.90;;;;;;4913634;29;20502;-73
2022/09/29 16:20:54;;;;;;;4.07;1.70;;;15.30;99.90;;;;;;4913494;29;20487;-73
2022/09/29 16:23:23;;;;;;;6.37;3.50;;;15.30;99.90;;;;;;4913131;29;20470;-73
2022/09/29 16:26:19;;;;;;;5.03;3.40;;;15.20;99.90;;;;;;4913322;29;20463;-76
2022/09/29 16:29:06;;;;;;;7.63;2.33;;;15.10;99.90;;;;;;4913016;29;20474;-74
2022/09/29 16:31:34;;;;;;;2.93;1.73;;;15.10;99.90;;;;;;4913767;29;20480;-73
2022/09/29 16:34:02;;;;;;;4.37;2.30;;;15.10;99.90;;;;;;4912976;29;20956;-72
2022/09/29 16:36:33;;;;;;;3.27;1.80;;;15.10;99.90;;;;;;4913247;29;20451;-73
2022/09/29 16:39:01;;;;;;;2.23;2.03;;;15.10;99.90;;;;;;4913063;29;20463;-74
2022/09/29 16:41:34;;;;;;;3.00;1.70;;;15.00;99.90;;;;;;4911867;29;20654;-73
2022/09/29 16:44:08;;;;;;;3.20;1.93;;;15.00;99.90;;;;;;4909906;29;20503;-74
2022/09/29 16:46:43;;;;;;;6.17;1.97;;;15.00;99.90;;;;;;4909848;29;20886;-74
2022/09/29 16:49:19;;;;;;;2.40;2.00;;;15.00;99.90;;;;;;4910552;29;20473;-74
2022/09/29 16:51:48;;;;;;;3.53;1.93;;;14.90;99.90;;;;;;4909842;29;20497;-74
2022/09/29 16:54:22;;;;;;;5.80;1.80;;;14.90;99.90;;;;;;4909326;29;20468;-74
2022/09/29 16:57:15;;;;;;;4.30;2.37;;;14.80;99.90;;;;;;4910371;29;20505;-73
2022/09/29 16:59:42;;;;;;;2.53;2.33;;;14.80;99.90;;;;;;4909928;29;20474;-73
2022/09/29 17:02:10;;;;;;;4.90;2.47;;;14.70;99.90;;;;;;4909765;29;20495;-75
2022/09/29 17:04:36;;;;;;;7.20;2.53;;;14.70;99.90;;;;;;4909865;29;20514;-74
2022/09/29 17:07:04;;;;;;;6.10;2.70;;;14.60;99.90;;;;;;4909962;29;21254;-75
2022/09/29 17:09:31;;;;;;;4.67;3.10;;;14.50;99.90;;;;;;4909638;29;20459;-73
2022/09/29 17:12:00;;;;;;;5.67;2.73;;;14.50;99.90;;;;;;4909642;29;20487;-75
2022/09/29 17:14:29;;;;;;;6.57;3.37;;;14.40;99.90;;;;;;4909624;29;20482;-75
2022/09/29 17:16:56;;;;;;;4.67;2.90;;;14.40;99.90;;;;;;4909765;29;20494;-73
2022/09/29 17:19:23;;;;;;;3.73;3.20;;;14.30;99.90;;;;;;4908377;29;20459;-73
2022/09/29 17:21:51;;;;;;;4.43;3.00;;;14.30;99.90;;;;;;4907867;29;20483;-74
2022/09/29 17:24:18;;;;;;;6.83;3.40;;;14.20;99.90;;;;;;4908686;29;20466;-74
2022/09/29 17:29:32;;;;;;;4.63;2.80;;;14.10;99.90;;;;;;4909397;29;20490;-74
2022/09/29 17:32:01;;;;;;;7.23;3.30;;;14.10;99.90;;;;;;4909082;29;21034;-74